sensor_id;sensor_type;location;lat;lon;timestamp;P1;durP1;ratioP1;P2;durP2;ratioP2
44842;SDS011;31884;52.538;13.820;2023-02-04T00:01:39;4.05;;;1.67;;
44842;SDS011;31884;52.538;13.820;2023-02-04T00:04:05;8.02;;;1.92;;
44842;SDS011;31884;52.538;13.820;2023-02-04T00:06:30;3.38;;;1.60;;
44842;SDS011;31884;52.538;13.820;2023-02-04T00:08:56;2.20;;;1.38;;
44842;SDS011;31884;52.538;13.820;2023-02-04T00:11:21;2.70;;;1.65;;
44842;SDS011;31884;52.538;13.820;2023-02-04T00:13:47;4.80;;;1.70;;
44842;SDS011;31884;52.538;13.820;2023-02-04T00:16:12;2.55;;;1.40;;
44842;SDS011;31884;52.538;13.820;2023-02-04T00:18:38;3.38;;;1.73;;
44842;SDS011;31884;52.538;13.820;2023-02-04T00:21:03;1.98;;;1.67;;
44842;SDS011;31884;52.538;13.820;2023-02-04T00:23:29;2.58;;;1.33;;
44842;SDS011;31884;52.538;13.820;2023-02-04T00:25:54;3.88;;;1.58;;
44842;SDS011;31884;52.538;13.820;2023-02-04T00:28:20;3.47;;;1.73;;
44842;SDS011;31884;52.538;13.820;2023-02-04T00:30:45;3.05;;;1.35;;
44842;SDS011;31884;52.538;13.820;2023-02-04T00:33:11;2.17;;;1.30;;
44842;SDS011;31884;52.538;13.820;2023-02-04T00:35:37;2.20;;;1.25;;
44842;SDS011;31884;52.538;13.820;2023-02-04T00:38:03;2.65;;;1.20;;
44842;SDS011;31884;52.538;13.820;2023-02-04T00:40:29;1.33;;;1.15;;
44842;SDS011;31884;52.538;13.820;2023-02-04T00:42:55;2.22;;;1.20;;
44842;SDS011;31884;52.538;13.820;2023-02-04T00:45:20;2.40;;;1.00;;
44842;SDS011;31884;52.538;13.820;2023-02-04T00:47:45;1.67;;;1.38;;
44842;SDS011;31884;52.538;13.820;2023-02-04T00:50:11;1.20;;;1.10;;
44842;SDS011;31884;52.538;13.820;2023-02-04T00:52:37;1.83;;;1.20;;
44842;SDS011;31884;52.538;13.820;2023-02-04T00:55:02;1.70;;;0.93;;
44842;SDS011;31884;52.538;13.820;2023-02-04T00:57:28;1.67;;;1.23;;
44842;SDS011;31884;52.538;13.820;2023-02-04T00:59:53;2.05;;;1.33;;
44842;SDS011;31884;52.538;13.820;2023-02-04T01:02:19;3.72;;;1.45;;
44842;SDS011;31884;52.538;13.820;2023-02-04T01:04:45;2.90;;;1.25;;
44842;SDS011;31884;52.538;13.820;2023-02-04T01:07:10;6.78;;;1.70;;
44842;SDS011;31884;52.538;13.820;2023-02-04T01:09:36;2.67;;;1.60;;
44842;SDS011;31884;52.538;13.820;2023-02-04T01:12:01;3.42;;;1.67;;
44842;SDS011;31884;52.538;13.820;2023-02-04T01:14:27;3.13;;;1.73;;
44842;SDS011;31884;52.538;13.820;2023-02-04T01:16:52;2.17;;;1.75;;
44842;SDS011;31884;52.538;13.820;2023-02-04T01:19:18;3.53;;;2.03;;
44842;SDS011;31884;52.538;13.820;2023-02-04T01:21:44;2.88;;;1.80;;
44842;SDS011;31884;52.538;13.820;2023-02-04T01:24:10;2.38;;;1.67;;
44842;SDS011;31884;52.538;13.820;2023-02-04T01:26:35;5.88;;;1.95;;
44842;SDS011;31884;52.538;13.820;2023-02-04T01:29:01;3.63;;;1.80;;
44842;SDS011;31884;52.538;13.820;2023-02-04T01:31:26;4.60;;;1.60;;
44842;SDS011;31884;52.538;13.820;2023-02-04T01:33:53;2.78;;;1.80;;
44842;SDS011;31884;52.538;13.820;2023-02-04T01:36:18;2.95;;;1.23;;
44842;SDS011;31884;52.538;13.820;2023-02-04T01:38:46;4.45;;;1.58;;
44842;SDS011;31884;52.538;13.820;2023-02-04T01:41:12;2.33;;;1.50;;
44842;SDS011;31884;52.538;13.820;2023-02-04T01:43:38;1.63;;;1.20;;
44842;SDS011;31884;52.538;13.820;2023-02-04T01:46:03;3.10;;;1.10;;
44842;SDS011;31884;52.538;13.820;2023-02-04T01:48:29;3.70;;;1.10;;
44842;SDS011;31884;52.538;13.820;2023-02-04T01:51:05;2.08;;;0.95;;
44842;SDS011;31884;52.538;13.820;2023-02-04T01:53:32;3.78;;;1.27;;
44842;SDS011;31884;52.538;13.820;2023-02-04T01:55:59;1.60;;;0.90;;
44842;SDS011;31884;52.538;13.820;2023-02-04T01:58:26;3.63;;;1.08;;
44842;SDS011;31884;52.538;13.820;2023-02-04T02:00:54;2.80;;;1.08;;
44842;SDS011;31884;52.538;13.820;2023-02-04T02:03:20;1.02;;;0.80;;
44842;SDS011;31884;52.538;13.820;2023-02-04T02:05:47;3.40;;;1.05;;
44842;SDS011;31884;52.538;13.820;2023-02-04T02:08:15;1.58;;;0.88;;
44842;SDS011;31884;52.538;13.820;2023-02-04T02:10:42;2.47;;;0.90;;
44842;SDS011;31884;52.538;13.820;2023-02-04T02:13:10;5.05;;;1.50;;
44842;SDS011;31884;52.538;13.820;2023-02-04T02:15:38;2.03;;;1.20;;
44842;SDS011;31884;52.538;13.820;2023-02-04T02:18:04;2.78;;;1.00;;
44842;SDS011;31884;52.538;13.820;2023-02-04T02:20:30;3.22;;;1.10;;
44842;SDS011;31884;52.538;13.820;2023-02-04T02:23:09;3.03;;;1.10;;
44842;SDS011;31884;52.538;13.820;2023-02-04T02:25:44;2.85;;;1.10;;
44842;SDS011;31884;52.538;13.820;2023-02-04T02:28:16;1.40;;;1.05;;
44842;SDS011;31884;52.538;13.820;2023-02-04T02:30:45;1.60;;;1.38;;
44842;SDS011;31884;52.538;13.820;2023-02-04T02:33:13;2.67;;;0.82;;
44842;SDS011;31884;52.538;13.820;2023-02-04T02:35:41;2.55;;;1.00;;
44842;SDS011;31884;52.538;13.820;2023-02-04T02:38:08;4.38;;;1.33;;
44842;SDS011;31884;52.538;13.820;2023-02-04T02:40:37;5.78;;;1.48;;
44842;SDS011;31884;52.538;13.820;2023-02-04T02:43:03;1.58;;;0.93;;
44842;SDS011;31884;52.538;13.820;2023-02-04T02:45:30;2.72;;;1.80;;
44842;SDS011;31884;52.538;13.820;2023-02-04T02:47:57;5.32;;;1.42;;
44842;SDS011;31884;52.538;13.820;2023-02-04T02:50:27;1.55;;;0.77;;
44842;SDS011;31884;52.538;13.820;2023-02-04T02:52:54;3.95;;;1.50;;
44842;SDS011;31884;52.538;13.820;2023-02-04T02:55:21;1.70;;;0.90;;
44842;SDS011;31884;52.538;13.820;2023-02-04T02:57:49;2.60;;;0.90;;
44842;SDS011;31884;52.538;13.820;2023-02-04T03:02:43;2.28;;;0.90;;
44842;SDS011;31884;52.538;13.820;2023-02-04T03:05:15;1.00;;;0.63;;
44842;SDS011;31884;52.538;13.820;2023-02-04T03:07:41;2.72;;;1.00;;
44842;SDS011;31884;52.538;13.820;2023-02-04T03:10:07;2.03;;;1.15;;
44842;SDS011;31884;52.538;13.820;2023-02-04T03:12:32;2.67;;;1.40;;
44842;SDS011;31884;52.538;13.820;2023-02-04T03:14:58;5.07;;;0.95;;
44842;SDS011;31884;52.538;13.820;2023-02-04T03:17:23;2.47;;;0.85;;
44842;SDS011;31884;52.538;13.820;2023-02-04T03:19:49;2.15;;;0.70;;
44842;SDS011;31884;52.538;13.820;2023-02-04T03:22:14;2.55;;;1.23;;
44842;SDS011;31884;52.538;13.820;2023-02-04T03:24:40;1.95;;;0.80;;
44842;SDS011;31884;52.538;13.820;2023-02-04T03:27:06;1.33;;;0.70;;
44842;SDS011;31884;52.538;13.820;2023-02-04T03:29:31;2.60;;;0.75;;
44842;SDS011;31884;52.538;13.820;2023-02-04T03:31:57;3.53;;;0.50;;
44842;SDS011;31884;52.538;13.820;2023-02-04T03:34:24;2.95;;;0.80;;
44842;SDS011;31884;52.538;13.820;2023-02-04T03:36:49;2.70;;;0.65;;
44842;SDS011;31884;52.538;13.820;2023-02-04T03:39:15;1.33;;;0.60;;
44842;SDS011;31884;52.538;13.820;2023-02-04T03:41:41;1.80;;;0.70;;
44842;SDS011;31884;52.538;13.820;2023-02-04T03:44:06;0.95;;;0.60;;
44842;SDS011;31884;52.538;13.820;2023-02-04T03:46:32;1.58;;;0.70;;
44842;SDS011;31884;52.538;13.820;2023-02-04T03:48:57;1.65;;;0.50;;
44842;SDS011;31884;52.538;13.820;2023-02-04T03:51:23;1.55;;;0.60;;
44842;SDS011;31884;52.538;13.820;2023-02-04T03:53:48;1.90;;;0.93;;
44842;SDS011;31884;52.538;13.820;2023-02-04T03:56:14;3.25;;;1.02;;
44842;SDS011;31884;52.538;13.820;2023-02-04T03:58:39;3.53;;;0.75;;
44842;SDS011;31884;52.538;13.820;2023-02-04T04:01:05;5.03;;;0.82;;
44842;SDS011;31884;52.538;13.820;2023-02-04T04:03:30;2.03;;;0.60;;
44842;SDS011;31884;52.538;13.820;2023-02-04T04:05:56;1.23;;;0.52;;
44842;SDS011;31884;52.538;13.820;2023-02-04T04:08:21;2.53;;;0.85;;
44842;SDS011;31884;52.538;13.820;2023-02-04T04:10:47;1.67;;;0.80;;
44842;SDS011;31884;52.538;13.820;2023-02-04T04:13:12;2.60;;;1.17;;
44842;SDS011;31884;52.538;13.820;2023-02-04T04:15:38;1.73;;;0.70;;
44842;SDS011;31884;52.538;13.820;2023-02-04T04:18:03;2.67;;;0.70;;
44842;SDS011;31884;52.538;13.820;2023-02-04T04:20:29;1.90;;;0.60;;
44842;SDS011;31884;52.538;13.820;2023-02-04T04:22:54;2.53;;;0.80;;
44842;SDS011;31884;52.538;13.820;2023-02-04T04:25:20;3.22;;;0.60;;
44842;SDS011;31884;52.538;13.820;2023-02-04T04:27:45;3.30;;;0.88;;
44842;SDS011;31884;52.538;13.820;2023-02-04T04:30:11;2.47;;;0.60;;
44842;SDS011;31884;52.538;13.820;2023-02-04T04:32:37;4.07;;;0.90;;
44842;SDS011;31884;52.538;13.820;2023-02-04T04:35:02;1.17;;;0.80;;
44842;SDS011;31884;52.538;13.820;2023-02-04T04:37:28;1.90;;;0.80;;
44842;SDS011;31884;52.538;13.820;2023-02-04T04:39:53;2.25;;;0.70;;
44842;SDS011;31884;52.538;13.820;2023-02-04T04:42:19;3.28;;;0.98;;
44842;SDS011;31884;52.538;13.820;2023-02-04T04:44:44;1.23;;;0.50;;
44842;SDS011;31884;52.538;13.820;2023-02-04T04:47:10;3.35;;;0.90;;
44842;SDS011;31884;52.538;13.820;2023-02-04T04:49:35;0.80;;;0.70;;
44842;SDS011;31884;52.538;13.820;2023-02-04T04:52:01;5.35;;;1.00;;
44842;SDS011;31884;52.538;13.820;2023-02-04T04:54:26;1.27;;;0.60;;
44842;SDS011;31884;52.538;13.820;2023-02-04T04:56:52;1.58;;;0.65;;
44842;SDS011;31884;52.538;13.820;2023-02-04T04:59:17;2.03;;;0.70;;
44842;SDS011;31884;52.538;13.820;2023-02-04T05:01:43;2.53;;;0.60;;
44842;SDS011;31884;52.538;13.820;2023-02-04T05:04:08;0.45;;;0.40;;
44842;SDS011;31884;52.538;13.820;2023-02-04T05:06:34;1.67;;;1.10;;
44842;SDS011;31884;52.538;13.820;2023-02-04T05:08:59;1.58;;;1.08;;
44842;SDS011;31884;52.538;13.820;2023-02-04T05:11:25;1.25;;;0.43;;
44842;SDS011;31884;52.538;13.820;2023-02-04T05:13:50;1.00;;;0.55;;
44842;SDS011;31884;52.538;13.820;2023-02-04T05:16:16;1.15;;;0.50;;
44842;SDS011;31884;52.538;13.820;2023-02-04T05:18:42;1.42;;;0.60;;
44842;SDS011;31884;52.538;13.820;2023-02-04T05:21:08;2.40;;;0.75;;
44842;SDS011;31884;52.538;13.820;2023-02-04T05:23:34;2.85;;;0.90;;
44842;SDS011;31884;52.538;13.820;2023-02-04T05:25:59;2.17;;;0.57;;
44842;SDS011;31884;52.538;13.820;2023-02-04T05:28:25;2.25;;;0.63;;
44842;SDS011;31884;52.538;13.820;2023-02-04T05:30:50;3.03;;;0.73;;
44842;SDS011;31884;52.538;13.820;2023-02-04T05:33:16;2.83;;;0.50;;
44842;SDS011;31884;52.538;13.820;2023-02-04T05:35:41;1.20;;;0.57;;
44842;SDS011;31884;52.538;13.820;2023-02-04T05:38:07;2.65;;;0.70;;
44842;SDS011;31884;52.538;13.820;2023-02-04T05:40:32;1.67;;;0.70;;
44842;SDS011;31884;52.538;13.820;2023-02-04T05:42:58;2.55;;;0.68;;
44842;SDS011;31884;52.538;13.820;2023-02-04T05:45:23;1.85;;;0.80;;
44842;SDS011;31884;52.538;13.820;2023-02-04T05:47:49;1.98;;;0.70;;
44842;SDS011;31884;52.538;13.820;2023-02-04T05:50:14;1.77;;;0.77;;
44842;SDS011;31884;52.538;13.820;2023-02-04T05:52:40;1.63;;;0.47;;
44842;SDS011;31884;52.538;13.820;2023-02-04T05:55:06;4.85;;;0.80;;
44842;SDS011;31884;52.538;13.820;2023-02-04T05:57:32;2.00;;;0.57;;
44842;SDS011;31884;52.538;13.820;2023-02-04T05:59:57;3.75;;;0.82;;
44842;SDS011;31884;52.538;13.820;2023-02-04T06:02:23;3.05;;;0.80;;
44842;SDS011;31884;52.538;13.820;2023-02-04T06:04:48;1.77;;;0.70;;
44842;SDS011;31884;52.538;13.820;2023-02-04T06:07:14;1.63;;;0.73;;
44842;SDS011;31884;52.538;13.820;2023-02-04T06:09:39;2.92;;;0.70;;
44842;SDS011;31884;52.538;13.820;2023-02-04T06:12:05;3.10;;;0.52;;
44842;SDS011;31884;52.538;13.820;2023-02-04T06:14:30;2.13;;;0.70;;
44842;SDS011;31884;52.538;13.820;2023-02-04T06:16:56;2.67;;;0.60;;
44842;SDS011;31884;52.538;13.820;2023-02-04T06:19:23;1.85;;;0.50;;
44842;SDS011;31884;52.538;13.820;2023-02-04T06:21:49;3.10;;;0.90;;
44842;SDS011;31884;52.538;13.820;2023-02-04T06:24:14;4.65;;;0.80;;
44842;SDS011;31884;52.538;13.820;2023-02-04T06:26:40;5.00;;;1.98;;
44842;SDS011;31884;52.538;13.820;2023-02-04T06:29:05;4.45;;;1.90;;
44842;SDS011;31884;52.538;13.820;2023-02-04T06:31:31;4.88;;;1.40;;
44842;SDS011;31884;52.538;13.820;2023-02-04T06:33:56;3.60;;;1.40;;
44842;SDS011;31884;52.538;13.820;2023-02-04T06:36:22;2.55;;;1.30;;
44842;SDS011;31884;52.538;13.820;2023-02-04T06:38:47;3.25;;;1.20;;
44842;SDS011;31884;52.538;13.820;2023-02-04T06:41:13;3.65;;;1.08;;
44842;SDS011;31884;52.538;13.820;2023-02-04T06:43:38;2.90;;;1.00;;
44842;SDS011;31884;52.538;13.820;2023-02-04T06:46:04;5.82;;;0.93;;
44842;SDS011;31884;52.538;13.820;2023-02-04T06:48:29;3.60;;;1.00;;
44842;SDS011;31884;52.538;13.820;2023-02-04T06:50:55;2.10;;;0.90;;
44842;SDS011;31884;52.538;13.820;2023-02-04T06:53:20;3.45;;;0.95;;
44842;SDS011;31884;52.538;13.820;2023-02-04T06:55:46;1.38;;;0.70;;
44842;SDS011;31884;52.538;13.820;2023-02-04T06:58:11;3.10;;;0.80;;
44842;SDS011;31884;52.538;13.820;2023-02-04T07:00:37;3.20;;;0.70;;
44842;SDS011;31884;52.538;13.820;2023-02-04T07:03:02;2.03;;;0.90;;
44842;SDS011;31884;52.538;13.820;2023-02-04T07:05:28;1.92;;;0.80;;
44842;SDS011;31884;52.538;13.820;2023-02-04T07:07:53;4.53;;;1.10;;
44842;SDS011;31884;52.538;13.820;2023-02-04T07:10:19;2.53;;;0.90;;
44842;SDS011;31884;52.538;13.820;2023-02-04T07:12:45;0.63;;;0.60;;
44842;SDS011;31884;52.538;13.820;2023-02-04T07:15:10;0.90;;;0.70;;
44842;SDS011;31884;52.538;13.820;2023-02-04T07:17:36;2.45;;;1.50;;
44842;SDS011;31884;52.538;13.820;2023-02-04T07:20:02;2.58;;;0.77;;
44842;SDS011;31884;52.538;13.820;2023-02-04T07:22:27;4.68;;;0.90;;
44842;SDS011;31884;52.538;13.820;2023-02-04T07:24:53;3.35;;;0.90;;
44842;SDS011;31884;52.538;13.820;2023-02-04T07:27:18;1.92;;;0.70;;
44842;SDS011;31884;52.538;13.820;2023-02-04T07:29:44;1.02;;;0.60;;
44842;SDS011;31884;52.538;13.820;2023-02-04T07:32:09;3.40;;;0.90;;
44842;SDS011;31884;52.538;13.820;2023-02-04T07:34:35;1.52;;;0.70;;
44842;SDS011;31884;52.538;13.820;2023-02-04T07:37:00;0.90;;;0.52;;
44842;SDS011;31884;52.538;13.820;2023-02-04T07:39:26;2.80;;;0.75;;
44842;SDS011;31884;52.538;13.820;2023-02-04T07:41:51;3.05;;;0.65;;
44842;SDS011;31884;52.538;13.820;2023-02-04T07:44:17;1.77;;;0.60;;
44842;SDS011;31884;52.538;13.820;2023-02-04T07:46:42;4.38;;;0.82;;
44842;SDS011;31884;52.538;13.820;2023-02-04T07:49:08;1.92;;;0.70;;
44842;SDS011;31884;52.538;13.820;2023-02-04T07:51:33;3.22;;;0.45;;
44842;SDS011;31884;52.538;13.820;2023-02-04T07:53:59;0.38;;;0.30;;
44842;SDS011;31884;52.538;13.820;2023-02-04T07:56:24;4.63;;;1.20;;
44842;SDS011;31884;52.538;13.820;2023-02-04T07:58:50;1.00;;;0.50;;
44842;SDS011;31884;52.538;13.820;2023-02-04T08:01:16;3.55;;;0.70;;
44842;SDS011;31884;52.538;13.820;2023-02-04T08:03:41;0.82;;;0.63;;
44842;SDS011;31884;52.538;13.820;2023-02-04T08:06:07;5.05;;;1.10;;
44842;SDS011;31884;52.538;13.820;2023-02-04T08:08:32;3.78;;;0.60;;
44842;SDS011;31884;52.538;13.820;2023-02-04T08:10:58;3.15;;;1.13;;
44842;SDS011;31884;52.538;13.820;2023-02-04T08:13:23;1.58;;;0.75;;
44842;SDS011;31884;52.538;13.820;2023-02-04T08:15:49;2.42;;;0.82;;
44842;SDS011;31884;52.538;13.820;2023-02-04T08:18:15;1.65;;;0.73;;
44842;SDS011;31884;52.538;13.820;2023-02-04T08:20:40;2.65;;;1.02;;
44842;SDS011;31884;52.538;13.820;2023-02-04T08:23:06;1.40;;;0.80;;
44842;SDS011;31884;52.538;13.820;2023-02-04T08:25:31;2.47;;;1.05;;
44842;SDS011;31884;52.538;13.820;2023-02-04T08:27:57;3.67;;;0.90;;
44842;SDS011;31884;52.538;13.820;2023-02-04T08:30:22;2.95;;;1.10;;
44842;SDS011;31884;52.538;13.820;2023-02-04T08:32:48;3.70;;;0.98;;
44842;SDS011;31884;52.538;13.820;2023-02-04T08:35:13;3.17;;;1.33;;
44842;SDS011;31884;52.538;13.820;2023-02-04T08:37:39;6.43;;;1.27;;
44842;SDS011;31884;52.538;13.820;2023-02-04T08:40:04;3.55;;;1.10;;
44842;SDS011;31884;52.538;13.820;2023-02-04T08:42:30;2.25;;;1.50;;
44842;SDS011;31884;52.538;13.820;2023-02-04T08:44:56;3.47;;;0.90;;
44842;SDS011;31884;52.538;13.820;2023-02-04T08:47:21;5.20;;;1.70;;
44842;SDS011;31884;52.538;13.820;2023-02-04T08:49:47;6.53;;;1.90;;
44842;SDS011;31884;52.538;13.820;2023-02-04T08:52:12;2.78;;;1.58;;
44842;SDS011;31884;52.538;13.820;2023-02-04T08:54:38;4.47;;;2.03;;
44842;SDS011;31884;52.538;13.820;2023-02-04T08:57:03;5.43;;;1.40;;
44842;SDS011;31884;52.538;13.820;2023-02-04T08:59:28;3.22;;;1.30;;
44842;SDS011;31884;52.538;13.820;2023-02-04T09:01:54;6.85;;;1.73;;
44842;SDS011;31884;52.538;13.820;2023-02-04T09:04:20;3.50;;;2.03;;
44842;SDS011;31884;52.538;13.820;2023-02-04T09:06:47;2.80;;;1.13;;
44842;SDS011;31884;52.538;13.820;2023-02-04T09:09:14;1.73;;;0.90;;
44842;SDS011;31884;52.538;13.820;2023-02-04T09:11:40;4.93;;;1.40;;
44842;SDS011;31884;52.538;13.820;2023-02-04T09:14:06;4.03;;;1.27;;
44842;SDS011;31884;52.538;13.820;2023-02-04T09:16:31;3.72;;;1.30;;
44842;SDS011;31884;52.538;13.820;2023-02-04T09:18:57;3.50;;;1.15;;
44842;SDS011;31884;52.538;13.820;2023-02-04T09:21:23;2.38;;;0.80;;
44842;SDS011;31884;52.538;13.820;2023-02-04T09:23:49;3.05;;;1.02;;
44842;SDS011;31884;52.538;13.820;2023-02-04T09:26:15;2.60;;;0.93;;
44842;SDS011;31884;52.538;13.820;2023-02-04T09:28:40;1.42;;;0.80;;
44842;SDS011;31884;52.538;13.820;2023-02-04T09:31:06;6.28;;;1.20;;
44842;SDS011;31884;52.538;13.820;2023-02-04T09:33:32;4.93;;;1.08;;
44842;SDS011;31884;52.538;13.820;2023-02-04T09:35:58;2.15;;;1.00;;
44842;SDS011;31884;52.538;13.820;2023-02-04T09:38:23;5.60;;;1.08;;
44842;SDS011;31884;52.538;13.820;2023-02-04T09:40:50;2.70;;;1.33;;
44842;SDS011;31884;52.538;13.820;2023-02-04T09:43:22;1.88;;;0.90;;
44842;SDS011;31884;52.538;13.820;2023-02-04T09:45:50;4.47;;;0.80;;
44842;SDS011;31884;52.538;13.820;2023-02-04T09:48:16;3.72;;;0.95;;
44842;SDS011;31884;52.538;13.820;2023-02-04T09:50:43;4.07;;;0.80;;
44842;SDS011;31884;52.538;13.820;2023-02-04T09:53:10;2.65;;;0.90;;
44842;SDS011;31884;52.538;13.820;2023-02-04T09:55:39;1.75;;;0.93;;
44842;SDS011;31884;52.538;13.820;2023-02-04T09:58:16;2.65;;;1.10;;
44842;SDS011;31884;52.538;13.820;2023-02-04T10:00:51;2.38;;;1.48;;
44842;SDS011;31884;52.538;13.820;2023-02-04T10:03:24;1.02;;;0.63;;
44842;SDS011;31884;52.538;13.820;2023-02-04T10:05:49;3.83;;;1.38;;
44842;SDS011;31884;52.538;13.820;2023-02-04T10:08:17;2.72;;;1.25;;
44842;SDS011;31884;52.538;13.820;2023-02-04T10:10:52;4.18;;;1.05;;
44842;SDS011;31884;52.538;13.820;2023-02-04T10:13:22;3.17;;;1.05;;
44842;SDS011;31884;52.538;13.820;2023-02-04T10:15:54;3.90;;;1.10;;
44842;SDS011;31884;52.538;13.820;2023-02-04T10:18:27;1.48;;;1.08;;
44842;SDS011;31884;52.538;13.820;2023-02-04T10:23:42;1.05;;;0.77;;
44842;SDS011;31884;52.538;13.820;2023-02-04T10:26:12;4.50;;;1.30;;
44842;SDS011;31884;52.538;13.820;2023-02-04T10:28:38;4.70;;;2.03;;
44842;SDS011;31884;52.538;13.820;2023-02-04T10:31:05;2.28;;;1.40;;
44842;SDS011;31884;52.538;13.820;2023-02-04T10:33:33;1.58;;;0.85;;
44842;SDS011;31884;52.538;13.820;2023-02-04T10:36:01;2.40;;;0.80;;
44842;SDS011;31884;52.538;13.820;2023-02-04T10:38:29;1.75;;;0.60;;
44842;SDS011;31884;52.538;13.820;2023-02-04T10:41:04;4.75;;;1.20;;
44842;SDS011;31884;52.538;13.820;2023-02-04T10:43:30;1.58;;;1.10;;
44842;SDS011;31884;52.538;13.820;2023-02-04T10:46:02;2.85;;;0.93;;
44842;SDS011;31884;52.538;13.820;2023-02-04T10:48:28;2.63;;;0.80;;
44842;SDS011;31884;52.538;13.820;2023-02-04T10:50:55;2.55;;;1.50;;
44842;SDS011;31884;52.538;13.820;2023-02-04T10:53:22;1.75;;;0.95;;
44842;SDS011;31884;52.538;13.820;2023-02-04T10:56:18;1.98;;;1.02;;
44842;SDS011;31884;52.538;13.820;2023-02-04T10:58:45;6.28;;;1.10;;
44842;SDS011;31884;52.538;13.820;2023-02-04T11:01:11;1.23;;;0.70;;
44842;SDS011;31884;52.538;13.820;2023-02-04T11:03:38;3.33;;;0.80;;
44842;SDS011;31884;52.538;13.820;2023-02-04T11:06:12;2.15;;;0.70;;
44842;SDS011;31884;52.538;13.820;2023-02-04T11:08:45;1.45;;;0.95;;
44842;SDS011;31884;52.538;13.820;2023-02-04T11:11:16;4.43;;;1.10;;
44842;SDS011;31884;52.538;13.820;2023-02-04T11:21:27;2.15;;;0.90;;
44842;SDS011;31884;52.538;13.820;2023-02-04T11:29:32;1.65;;;0.75;;
44842;SDS011;31884;52.538;13.820;2023-02-04T11:32:01;4.63;;;1.88;;
44842;SDS011;31884;52.538;13.820;2023-02-04T11:34:29;1.77;;;0.82;;
44842;SDS011;31884;52.538;13.820;2023-02-04T11:37:04;2.17;;;0.60;;
44842;SDS011;31884;52.538;13.820;2023-02-04T11:39:38;2.08;;;0.70;;
44842;SDS011;31884;52.538;13.820;2023-02-04T11:42:16;2.15;;;1.00;;
44842;SDS011;31884;52.538;13.820;2023-02-04T11:47:14;4.68;;;1.27;;
44842;SDS011;31884;52.538;13.820;2023-02-04T11:49:40;1.10;;;0.77;;
44842;SDS011;31884;52.538;13.820;2023-02-04T11:52:10;2.60;;;1.10;;
44842;SDS011;31884;52.538;13.820;2023-02-04T11:54:37;0.60;;;0.40;;
44842;SDS011;31884;52.538;13.820;2023-02-04T11:57:03;1.40;;;0.70;;
44842;SDS011;31884;52.538;13.820;2023-02-04T11:59:29;4.47;;;1.30;;
44842;SDS011;31884;52.538;13.820;2023-02-04T12:02:17;1.10;;;0.60;;
44842;SDS011;31884;52.538;13.820;2023-02-04T12:04:57;2.25;;;1.00;;
44842;SDS011;31884;52.538;13.820;2023-02-04T12:07:34;2.25;;;1.20;;
44842;SDS011;31884;52.538;13.820;2023-02-04T12:10:09;3.42;;;1.00;;
44842;SDS011;31884;52.538;13.820;2023-02-04T12:12:54;2.03;;;1.00;;
44842;SDS011;31884;52.538;13.820;2023-02-04T12:15:24;2.90;;;0.80;;
44842;SDS011;31884;52.538;13.820;2023-02-04T12:18:04;2.25;;;1.02;;
44842;SDS011;31884;52.538;13.820;2023-02-04T12:20:33;1.02;;;0.85;;
44842;SDS011;31884;52.538;13.820;2023-02-04T12:23:00;1.27;;;1.02;;
44842;SDS011;31884;52.538;13.820;2023-02-04T12:25:25;2.95;;;0.80;;
44842;SDS011;31884;52.538;13.820;2023-02-04T12:27:52;1.30;;;0.90;;
44842;SDS011;31884;52.538;13.820;2023-02-04T12:30:19;1.52;;;0.50;;
44842;SDS011;31884;52.538;13.820;2023-02-04T12:32:45;3.08;;;1.15;;
44842;SDS011;31884;52.538;13.820;2023-02-04T12:35:11;1.52;;;0.75;;
44842;SDS011;31884;52.538;13.820;2023-02-04T12:37:36;1.63;;;0.60;;
44842;SDS011;31884;52.538;13.820;2023-02-04T12:40:02;2.15;;;0.70;;
44842;SDS011;31884;52.538;13.820;2023-02-04T12:42:28;3.17;;;0.63;;
44842;SDS011;31884;52.538;13.820;2023-02-04T12:44:53;3.55;;;1.30;;
44842;SDS011;31884;52.538;13.820;2023-02-04T12:47:18;1.90;;;1.00;;
44842;SDS011;31884;52.538;13.820;2023-02-04T12:49:44;4.40;;;1.00;;
44842;SDS011;31884;52.538;13.820;2023-02-04T12:52:10;2.92;;;1.00;;
44842;SDS011;31884;52.538;13.820;2023-02-04T12:54:36;1.40;;;0.73;;
44842;SDS011;31884;52.538;13.820;2023-02-04T12:57:01;2.65;;;0.90;;
44842;SDS011;31884;52.538;13.820;2023-02-04T12:59:27;1.67;;;0.80;;
44842;SDS011;31884;52.538;13.820;2023-02-04T13:01:54;1.48;;;0.73;;
44842;SDS011;31884;52.538;13.820;2023-02-04T13:04:20;1.50;;;0.77;;
44842;SDS011;31884;52.538;13.820;2023-02-04T13:06:45;1.67;;;0.90;;
44842;SDS011;31884;52.538;13.820;2023-02-04T13:09:11;1.65;;;0.80;;
44842;SDS011;31884;52.538;13.820;2023-02-04T13:11:36;1.30;;;0.60;;
44842;SDS011;31884;52.538;13.820;2023-02-04T13:14:02;1.67;;;0.90;;
44842;SDS011;31884;52.538;13.820;2023-02-04T13:16:27;4.00;;;0.80;;
44842;SDS011;31884;52.538;13.820;2023-02-04T13:18:52;0.52;;;0.52;;
44842;SDS011;31884;52.538;13.820;2023-02-04T13:21:18;0.70;;;0.60;;
44842;SDS011;31884;52.538;13.820;2023-02-04T13:23:43;2.88;;;0.82;;
44842;SDS011;31884;52.538;13.820;2023-02-04T13:26:09;2.58;;;0.60;;
44842;SDS011;31884;52.538;13.820;2023-02-04T13:28:35;1.77;;;0.95;;
44842;SDS011;31884;52.538;13.820;2023-02-04T13:31:00;1.30;;;0.60;;
44842;SDS011;31884;52.538;13.820;2023-02-04T13:33:26;0.82;;;0.57;;
44842;SDS011;31884;52.538;13.820;2023-02-04T13:35:54;1.00;;;0.50;;
44842;SDS011;31884;52.538;13.820;2023-02-04T13:38:20;0.68;;;0.43;;
44842;SDS011;31884;52.538;13.820;2023-02-04T13:40:45;2.00;;;0.70;;
44842;SDS011;31884;52.538;13.820;2023-02-04T13:43:10;1.02;;;0.43;;
44842;SDS011;31884;52.538;13.820;2023-02-04T13:45:36;0.60;;;0.50;;
44842;SDS011;31884;52.538;13.820;2023-02-04T13:48:01;0.98;;;0.30;;
44842;SDS011;31884;52.538;13.820;2023-02-04T13:50:27;3.00;;;0.85;;
44842;SDS011;31884;52.538;13.820;2023-02-04T13:52:52;1.08;;;0.60;;
44842;SDS011;31884;52.538;13.820;2023-02-04T13:55:19;2.08;;;0.60;;
44842;SDS011;31884;52.538;13.820;2023-02-04T13:57:45;1.15;;;0.68;;
44842;SDS011;31884;52.538;13.820;2023-02-04T14:00:10;0.68;;;0.68;;
44842;SDS011;31884;52.538;13.820;2023-02-04T14:02:36;1.08;;;0.52;;
44842;SDS011;31884;52.538;13.820;2023-02-04T14:05:02;2.15;;;1.05;;
44842;SDS011;31884;52.538;13.820;2023-02-04T14:07:27;2.30;;;0.85;;
44842;SDS011;31884;52.538;13.820;2023-02-04T14:09:54;0.85;;;0.60;;
44842;SDS011;31884;52.538;13.820;2023-02-04T14:12:19;2.35;;;1.08;;
44842;SDS011;31884;52.538;13.820;2023-02-04T14:14:45;1.73;;;1.05;;
44842;SDS011;31884;52.538;13.820;2023-02-04T14:17:10;1.23;;;0.95;;
44842;SDS011;31884;52.538;13.820;2023-02-04T14:19:36;1.58;;;0.80;;
44842;SDS011;31884;52.538;13.820;2023-02-04T14:22:01;1.48;;;0.73;;
44842;SDS011;31884;52.538;13.820;2023-02-04T14:24:27;2.72;;;1.27;;
44842;SDS011;31884;52.538;13.820;2023-02-04T14:26:52;1.98;;;0.90;;
44842;SDS011;31884;52.538;13.820;2023-02-04T14:29:20;2.42;;;1.02;;
44842;SDS011;31884;52.538;13.820;2023-02-04T14:31:45;3.15;;;1.30;;
44842;SDS011;31884;52.538;13.820;2023-02-04T14:34:10;2.20;;;0.93;;
44842;SDS011;31884;52.538;13.820;2023-02-04T14:36:37;3.00;;;0.90;;
44842;SDS011;31884;52.538;13.820;2023-02-04T14:39:02;4.25;;;1.73;;
44842;SDS011;31884;52.538;13.820;2023-02-04T14:41:28;1.42;;;1.30;;
44842;SDS011;31884;52.538;13.820;2023-02-04T14:43:55;1.60;;;0.80;;
44842;SDS011;31884;52.538;13.820;2023-02-04T14:46:20;2.75;;;1.40;;
44842;SDS011;31884;52.538;13.820;2023-02-04T14:48:46;2.03;;;1.00;;
44842;SDS011;31884;52.538;13.820;2023-02-04T14:51:12;0.52;;;0.50;;